Terminal Aerodrome Forecast
Issued by NWS Wilmington, OH

Home | Current Version | Previous Version | Text Only | Print | Product List | Glossary On
Versions: 1 2 3 4 5 6 7 8 9 10 11 12 13 14 15 16 17 18 19 20 21 22 23 24 25 26 27 28 29
000
FTUS41 KILN 022300
TAFCVG
TAF
KCVG 022330Z 0300/0406 27003KT P6SM FEW025 SCT250
     FM030600 VRB02KT 4SM BR SKC
     FM031000 VRB02KT 2SM BR SKC
     FM031400 20004KT P6SM FEW035
     FM040000 VRB02KT P6SM SKC=

USA.gov is the U.S. government's official web portal to all federal, state and local government web resources and services.